logo
Search for airport 
image banner adimage banner adimage banner ad
image banner ad

LOKU - Klagenfurt Ukh

Located in District Klagenfurt Stadt, Austria

ICAO - , IATA -

Data provided by Airmate  

General information

Coordinates: N46°37'5" E14°17'44"
Elevation is 1506 feet MSL.
 
View others Airports in Carinthia

Operational data

Special qualification required
Current time UTC:
Current local time:
Weather at : LOWK - Klagenfurt ( 4 km )
METAR: LOWK 281220Z AUTO VRB02KT CAVOK 11/06 Q1019 NOSIG
TAF: TAF LOWK 281115Z 2812/2912 VRB03KT 9999 SCT050 TX13/2814Z TN06/2905Z TEMPO 2901/2909 4500 BR BKN012
View NOTAMs / SUP AIP / TFR affecting this airport [VIEW]
Communications frequencies: [VIEW]

Runways:

Airport contact information

Address: District Klagenfurt Stadt Austria

Satellite view of LOKU